createdAt,value
2018-07-19T00:01:41.222Z,6.33
2018-07-19T00:04:09.850Z,6.27
2018-07-19T00:06:38.499Z,6.37
2018-07-19T00:09:08.932Z,6.47
2018-07-19T00:11:37.870Z,6.07
2018-07-19T00:14:06.594Z,6.10
2018-07-19T00:16:35.271Z,6.40
2018-07-19T00:19:04.001Z,6.20
2018-07-19T00:21:32.591Z,6.27
2018-07-19T00:24:01.242Z,6.27
2018-07-19T00:26:29.969Z,6.10
2018-07-19T00:28:58.630Z,6.10
2018-07-19T00:31:27.272Z,6.20
2018-07-19T00:33:55.964Z,6.40
2018-07-19T00:36:24.679Z,6.77
2018-07-19T00:38:53.368Z,6.77
2018-07-19T00:41:22.107Z,6.83
2018-07-19T00:43:50.738Z,6.63
2018-07-19T00:46:19.367Z,7.23
2018-07-19T00:48:48.055Z,7.50
2018-07-19T00:51:16.817Z,7.43
2018-07-19T00:53:45.497Z,8.30
2018-07-19T00:56:14.142Z,8.23
2018-07-19T00:58:42.827Z,8.17
2018-07-19T01:01:11.508Z,8.90
2018-07-19T01:03:40.234Z,8.30
2018-07-19T01:06:08.870Z,8.87
2018-07-19T01:08:37.543Z,7.87
2018-07-19T01:11:06.278Z,8.07
2018-07-19T01:13:34.934Z,8.00
2018-07-19T01:16:03.623Z,7.50
2018-07-19T01:18:32.258Z,8.00
2018-07-19T01:21:00.908Z,7.27
2018-07-19T01:23:29.651Z,6.60
2018-07-19T01:25:58.317Z,6.20
2018-07-19T01:28:26.972Z,5.47
2018-07-19T01:30:55.632Z,7.37
2018-07-19T01:33:24.293Z,5.83
2018-07-19T01:35:52.969Z,5.70
2018-07-19T01:38:21.606Z,5.70
2018-07-19T01:40:50.588Z,5.80
2018-07-19T01:43:19.255Z,5.53
2018-07-19T01:45:47.946Z,6.00
2018-07-19T01:48:16.594Z,5.30
2018-07-19T01:50:45.270Z,5.13
2018-07-19T01:53:13.946Z,5.70
2018-07-19T01:55:42.610Z,5.20
2018-07-19T01:58:11.285Z,4.70
2018-07-19T02:00:40.019Z,5.10
2018-07-19T02:03:08.687Z,5.30
2018-07-19T02:05:37.331Z,5.17
2018-07-19T02:08:06.063Z,5.13
2018-07-19T02:10:34.790Z,4.90
2018-07-19T02:13:03.424Z,4.80
2018-07-19T02:15:32.136Z,5.40
2018-07-19T02:18:00.845Z,4.90
2018-07-19T02:20:29.511Z,5.03
2018-07-19T02:22:58.234Z,69.70
2018-07-19T02:25:26.866Z,4.77
2018-07-19T02:27:55.547Z,5.37
2018-07-19T02:30:24.219Z,5.13
2018-07-19T02:32:52.870Z,5.77
2018-07-19T02:35:21.519Z,5.63
2018-07-19T02:37:50.160Z,5.67
2018-07-19T02:40:18.822Z,5.37
2018-07-19T02:42:47.483Z,5.40
2018-07-19T02:45:16.446Z,6.03
2018-07-19T02:47:45.111Z,6.03
2018-07-19T02:50:13.775Z,5.90
2018-07-19T02:52:42.419Z,5.53
2018-07-19T02:55:11.115Z,5.40
2018-07-19T02:57:39.789Z,5.60
2018-07-19T03:00:08.496Z,5.90
2018-07-19T03:02:37.176Z,5.70
2018-07-19T03:05:05.920Z,5.40
2018-07-19T03:07:34.667Z,5.60
2018-07-19T03:10:03.399Z,6.20
2018-07-19T03:12:32.079Z,5.63
2018-07-19T03:15:00.723Z,6.10
2018-07-19T03:17:29.401Z,5.83
2018-07-19T03:19:58.027Z,5.77
2018-07-19T03:22:26.706Z,6.00
2018-07-19T03:24:55.338Z,6.10
2018-07-19T03:27:23.988Z,6.00
2018-07-19T03:29:52.614Z,5.90
2018-07-19T03:32:21.275Z,5.97
2018-07-19T03:34:49.942Z,6.97
2018-07-19T03:37:18.683Z,6.17
2018-07-19T03:39:47.367Z,7.23
2018-07-19T03:42:16.094Z,6.47
2018-07-19T03:44:44.876Z,6.57
2018-07-19T03:47:13.626Z,6.70
2018-07-19T03:49:42.267Z,6.70
2018-07-19T03:52:10.955Z,6.30
2018-07-19T03:54:39.638Z,5.97
2018-07-19T03:57:08.379Z,6.40
2018-07-19T03:59:37.026Z,5.90
2018-07-19T04:02:05.690Z,6.33
2018-07-19T04:04:34.363Z,6.17
2018-07-19T04:07:03.051Z,6.17
2018-07-19T04:09:31.814Z,5.97
2018-07-19T04:12:00.487Z,6.40
2018-07-19T04:14:29.185Z,6.70
2018-07-19T04:16:57.838Z,6.57
2018-07-19T04:19:26.575Z,6.30
2018-07-19T04:21:55.219Z,6.13
2018-07-19T04:24:23.870Z,6.20
2018-07-19T04:26:52.550Z,6.27
2018-07-19T04:29:22.410Z,6.30
2018-07-19T04:31:51.178Z,5.93
2018-07-19T04:34:20.005Z,5.80
2018-07-19T04:36:48.735Z,6.40
2018-07-19T04:39:17.379Z,6.10
2018-07-19T04:41:46.003Z,6.40
2018-07-19T04:44:14.642Z,5.90
2018-07-19T04:46:43.379Z,5.93
2018-07-19T04:49:12.032Z,6.43
2018-07-19T04:51:40.674Z,5.73
2018-07-19T04:54:09.389Z,6.30
2018-07-19T04:56:38.043Z,5.73
2018-07-19T04:59:06.701Z,6.20
2018-07-19T05:01:35.351Z,6.47
2018-07-19T05:04:04.135Z,6.73
2018-07-19T05:06:32.792Z,6.27
2018-07-19T05:09:01.467Z,6.43
2018-07-19T05:11:30.091Z,6.40
2018-07-19T05:13:58.733Z,6.93
2018-07-19T05:16:27.387Z,6.33
2018-07-19T05:18:56.081Z,7.00
2018-07-19T05:21:24.767Z,6.63
2018-07-19T05:23:53.468Z,6.23
2018-07-19T05:26:22.112Z,6.30
2018-07-19T05:28:50.802Z,5.60
2018-07-19T05:31:19.498Z,5.80
2018-07-19T05:33:48.146Z,5.70
2018-07-19T05:36:16.852Z,5.37
2018-07-19T05:38:45.514Z,7.60
2018-07-19T05:41:14.163Z,4.90
2018-07-19T05:43:42.789Z,4.53
2018-07-19T05:46:11.485Z,5.37
2018-07-19T05:48:40.140Z,4.57
2018-07-19T05:51:09.264Z,4.50
2018-07-19T05:53:37.888Z,4.60
2018-07-19T05:56:06.650Z,4.87
2018-07-19T05:58:35.328Z,4.50
2018-07-19T06:01:04.036Z,4.80
2018-07-19T06:03:32.801Z,4.00
2018-07-19T06:06:01.484Z,4.20
2018-07-19T06:08:30.147Z,3.97
2018-07-19T06:10:58.846Z,4.30
2018-07-19T06:13:27.531Z,3.50
2018-07-19T06:15:56.176Z,4.20
2018-07-19T06:18:24.869Z,4.03
2018-07-19T06:20:53.529Z,4.10
2018-07-19T06:23:22.178Z,4.37
2018-07-19T06:25:50.874Z,4.33
2018-07-19T06:28:19.536Z,3.57
2018-07-19T06:30:48.181Z,4.20
2018-07-19T06:33:16.929Z,3.63
2018-07-19T06:35:45.569Z,3.40
2018-07-19T06:38:14.220Z,3.30
2018-07-19T06:40:42.933Z,3.30
2018-07-19T06:43:11.706Z,3.60
2018-07-19T06:45:40.671Z,3.53
2018-07-19T06:48:09.349Z,3.30
2018-07-19T06:50:38.039Z,3.33
2018-07-19T06:53:07.067Z,3.30
2018-07-19T06:55:36.219Z,3.40
2018-07-19T06:58:05.139Z,3.03
2018-07-19T07:00:33.789Z,2.80
2018-07-19T07:03:02.462Z,2.80
2018-07-19T07:05:31.091Z,2.70
2018-07-19T07:07:59.747Z,2.70
2018-07-19T07:10:28.383Z,2.90
2018-07-19T07:12:57.039Z,2.90
2018-07-19T07:15:25.771Z,3.03
2018-07-19T07:17:54.451Z,2.77
2018-07-19T07:20:23.070Z,3.07
2018-07-19T07:22:51.743Z,2.80
2018-07-19T07:25:20.372Z,2.60
2018-07-19T07:27:49.047Z,2.90
2018-07-19T07:30:17.743Z,2.70
2018-07-19T07:32:46.396Z,2.87
2018-07-19T07:35:15.063Z,2.83
2018-07-19T07:37:43.696Z,2.53
2018-07-19T07:40:12.386Z,2.63
2018-07-19T07:42:41.048Z,2.47
2018-07-19T07:45:09.721Z,2.50
2018-07-19T07:47:38.370Z,2.33
2018-07-19T07:50:07.045Z,2.60
2018-07-19T07:52:35.686Z,2.30
2018-07-19T07:55:04.699Z,2.20
2018-07-19T07:57:33.390Z,2.57
2018-07-19T08:00:02.060Z,2.40
2018-07-19T08:02:30.783Z,3.00
2018-07-19T08:04:59.443Z,3.17
2018-07-19T08:07:28.093Z,3.07
2018-07-19T08:09:56.753Z,3.30
2018-07-19T08:12:25.413Z,3.50
2018-07-19T08:14:54.090Z,3.10
2018-07-19T08:17:22.866Z,2.83
2018-07-19T08:19:51.551Z,2.90
2018-07-19T08:22:20.278Z,3.00
2018-07-19T08:24:48.938Z,3.03
2018-07-19T08:27:17.614Z,4.93
2018-07-19T08:29:46.223Z,3.80
2018-07-19T08:32:14.896Z,3.80
2018-07-19T08:34:43.557Z,3.90
2018-07-19T08:37:12.217Z,4.03
2018-07-19T08:39:40.961Z,4.27
2018-07-19T08:42:09.648Z,4.20
2018-07-19T08:44:38.377Z,3.90
2018-07-19T08:47:07.220Z,3.70
2018-07-19T08:49:35.841Z,4.10
2018-07-19T08:52:04.498Z,3.50
2018-07-19T08:54:33.154Z,3.27
2018-07-19T08:57:01.806Z,3.37
2018-07-19T08:59:30.440Z,3.47
2018-07-19T09:01:59.080Z,3.73
2018-07-19T09:04:27.802Z,3.33
2018-07-19T09:06:56.450Z,5.00
2018-07-19T09:09:25.133Z,4.20
2018-07-19T09:11:53.862Z,3.40
2018-07-19T09:14:22.635Z,3.60
2018-07-19T09:16:51.865Z,3.70
2018-07-19T09:19:20.569Z,4.20
2018-07-19T09:21:49.259Z,4.77
2018-07-19T09:24:17.847Z,5.00
2018-07-19T09:26:46.506Z,5.30
2018-07-19T09:29:15.139Z,6.33
2018-07-19T09:31:43.834Z,5.50
2018-07-19T09:34:12.499Z,6.07
2018-07-19T09:36:41.251Z,5.20
2018-07-19T09:39:12.002Z,5.33
2018-07-19T09:41:41.366Z,6.03
2018-07-19T09:44:10.045Z,5.17
2018-07-19T09:46:38.867Z,5.23
2018-07-19T09:49:07.568Z,5.80
2018-07-19T09:51:36.307Z,5.90
2018-07-19T09:54:05.026Z,6.47
2018-07-19T09:56:33.724Z,5.40
2018-07-19T09:59:02.477Z,6.37
2018-07-19T10:01:31.146Z,5.67
2018-07-19T10:03:59.773Z,4.93
2018-07-19T10:06:43.199Z,5.10
2018-07-19T10:09:11.929Z,5.20
2018-07-19T10:11:40.618Z,5.67
2018-07-19T10:14:09.361Z,7.30
2018-07-19T10:16:38.108Z,5.80
2018-07-19T10:19:06.951Z,6.37
2018-07-19T10:21:35.801Z,5.50
2018-07-19T10:24:04.584Z,5.40
2018-07-19T10:26:33.320Z,5.47
2018-07-19T10:29:01.965Z,5.83
2018-07-19T10:31:30.627Z,6.20
2018-07-19T10:33:59.283Z,5.80
2018-07-19T10:36:27.967Z,4.90
2018-07-19T10:38:56.675Z,5.97
2018-07-19T10:41:25.363Z,6.70
2018-07-19T10:43:54.315Z,4.77
2018-07-19T10:46:22.989Z,4.50
2018-07-19T10:48:51.688Z,5.17
2018-07-19T10:51:20.304Z,5.00
2018-07-19T10:53:48.940Z,5.23
2018-07-19T10:56:17.619Z,4.53
2018-07-19T10:58:46.429Z,4.73
2018-07-19T11:01:15.067Z,4.97
2018-07-19T11:03:43.804Z,4.50
2018-07-19T11:06:12.439Z,4.40
2018-07-19T11:08:41.060Z,4.93
2018-07-19T11:11:09.744Z,4.20
2018-07-19T11:13:39.294Z,4.60
2018-07-19T11:16:07.993Z,6.40
2018-07-19T11:18:36.640Z,4.53
2018-07-19T11:21:05.305Z,4.53
2018-07-19T11:23:33.963Z,4.73
2018-07-19T11:26:02.731Z,4.50
2018-07-19T11:28:31.366Z,5.03
2018-07-19T11:31:00.031Z,4.73
2018-07-19T11:33:28.708Z,4.83
2018-07-19T11:35:57.382Z,5.60
2018-07-19T11:38:26.004Z,5.50
2018-07-19T11:40:54.633Z,5.40
2018-07-19T11:43:23.323Z,5.97
2018-07-19T11:45:51.992Z,5.80
2018-07-19T11:48:21.383Z,8.43
2018-07-19T11:50:50.077Z,6.00
2018-07-19T11:53:18.740Z,5.40
2018-07-19T11:55:47.428Z,4.77
2018-07-19T11:58:16.088Z,6.57
2018-07-19T12:00:44.744Z,5.23
2018-07-19T12:03:13.454Z,6.80
2018-07-19T12:05:42.117Z,5.77
2018-07-19T12:08:10.888Z,5.70
2018-07-19T12:10:40.300Z,5.23
2018-07-19T12:13:09.076Z,5.03
2018-07-19T12:15:37.700Z,5.60
2018-07-19T12:18:06.358Z,4.83
2018-07-19T12:20:35.088Z,6.63
2018-07-19T12:23:03.705Z,5.20
2018-07-19T12:25:32.341Z,4.60
2018-07-19T12:28:00.974Z,5.37
2018-07-19T12:30:29.631Z,4.57
2018-07-19T12:32:58.318Z,4.70
2018-07-19T12:35:26.971Z,4.90
2018-07-19T12:37:55.618Z,6.30
2018-07-19T12:40:24.264Z,5.10
2018-07-19T12:42:53.137Z,5.07
2018-07-19T12:45:21.891Z,4.30
2018-07-19T12:47:50.575Z,4.27
2018-07-19T12:50:19.252Z,4.50
2018-07-19T12:52:48.001Z,4.40
2018-07-19T12:55:16.728Z,4.17
2018-07-19T12:57:45.417Z,4.63
2018-07-19T13:00:14.275Z,4.50
2018-07-19T13:02:42.906Z,4.90
2018-07-19T13:05:11.505Z,4.83
2018-07-19T13:07:40.205Z,4.70
2018-07-19T13:10:08.953Z,4.80
2018-07-19T13:12:37.617Z,4.70
2018-07-19T13:15:07.011Z,4.20
2018-07-19T13:17:35.641Z,4.27
2018-07-19T13:20:04.806Z,4.13
2018-07-19T13:22:33.540Z,4.00
2018-07-19T13:25:02.313Z,4.40
2018-07-19T13:27:31.932Z,4.03
2018-07-19T13:30:00.594Z,3.60
2018-07-19T13:32:29.249Z,3.50
2018-07-19T13:34:57.954Z,3.50
2018-07-19T13:37:26.748Z,4.00
2018-07-19T13:39:55.492Z,4.50
2018-07-19T13:42:24.127Z,3.67
2018-07-19T13:44:52.763Z,5.17
2018-07-19T13:47:21.450Z,4.13
2018-07-19T13:49:50.096Z,3.50
2018-07-19T13:52:24.822Z,3.93
2018-07-19T13:54:53.456Z,4.10
2018-07-19T13:57:22.117Z,4.30
2018-07-19T13:59:50.862Z,3.80
2018-07-19T14:02:19.528Z,4.00
2018-07-19T14:04:48.233Z,4.67
2018-07-19T14:07:16.922Z,4.20
2018-07-19T14:09:46.119Z,4.63
2018-07-19T14:12:14.769Z,3.90
2018-07-19T14:14:43.491Z,4.43
2018-07-19T14:17:12.263Z,4.53
2018-07-19T14:19:41.017Z,4.60
2018-07-19T14:22:09.704Z,4.50
2018-07-19T14:24:38.376Z,4.83
2018-07-19T14:27:07.244Z,4.83
2018-07-19T14:29:35.990Z,5.40
2018-07-19T14:32:04.748Z,7.30
2018-07-19T14:34:34.537Z,4.97
2018-07-19T14:37:03.208Z,4.67
2018-07-19T14:39:31.975Z,5.00
2018-07-19T14:42:00.686Z,4.87
2018-07-19T14:44:29.345Z,4.87
2018-07-19T14:46:58.083Z,4.40
2018-07-19T14:49:26.736Z,4.80
2018-07-19T14:51:55.383Z,4.43
2018-07-19T14:54:24.108Z,5.57
2018-07-19T14:56:52.772Z,4.90
2018-07-19T14:59:21.508Z,4.60
2018-07-19T15:01:50.182Z,5.27
2018-07-19T15:04:18.870Z,5.00
2018-07-19T15:06:47.648Z,5.30
2018-07-19T15:09:16.321Z,5.10
2018-07-19T15:11:45.041Z,5.07
2018-07-19T15:14:13.749Z,5.50
2018-07-19T15:16:42.462Z,5.33
2018-07-19T15:19:11.125Z,7.30
2018-07-19T15:21:39.745Z,5.63
2018-07-19T15:24:08.444Z,6.17
2018-07-19T15:26:37.117Z,6.30
2018-07-19T15:29:05.778Z,6.03
2018-07-19T15:31:34.438Z,6.50
2018-07-19T15:34:03.187Z,6.60
2018-07-19T15:36:31.875Z,6.80
2018-07-19T15:39:00.549Z,6.70
2018-07-19T15:41:29.246Z,7.07
2018-07-19T15:43:57.948Z,9.03
2018-07-19T15:46:26.580Z,8.47
2018-07-19T15:48:55.279Z,10.17
2018-07-19T15:51:23.921Z,10.83
2018-07-19T15:53:52.816Z,9.53
2018-07-19T15:56:21.540Z,10.40
2018-07-19T15:58:50.201Z,10.33
2018-07-19T16:01:19.014Z,9.83
2018-07-19T16:03:47.656Z,9.80
2018-07-19T16:06:16.403Z,12.27
2018-07-19T16:08:45.073Z,10.47
2018-07-19T16:11:13.728Z,10.30
2018-07-19T16:13:42.415Z,10.23
2018-07-19T16:16:11.153Z,10.63
2018-07-19T16:18:39.833Z,10.57
2018-07-19T16:21:08.509Z,10.30
2018-07-19T16:23:37.145Z,10.37
2018-07-19T16:26:05.921Z,11.53
2018-07-19T16:28:34.629Z,10.97
2018-07-19T16:31:03.259Z,11.73
2018-07-19T16:33:31.909Z,11.33
2018-07-19T16:36:00.574Z,11.50
2018-07-19T16:38:29.302Z,12.23
2018-07-19T16:40:57.991Z,11.60
2018-07-19T16:43:26.686Z,11.33
2018-07-19T16:45:55.325Z,11.00
2018-07-19T16:48:24.085Z,11.57
2018-07-19T16:50:52.735Z,11.13
2018-07-19T16:53:21.348Z,12.57
2018-07-19T16:55:49.982Z,12.20
2018-07-19T16:58:18.732Z,12.83
2018-07-19T17:00:47.390Z,12.43
2018-07-19T17:03:16.079Z,12.80
2018-07-19T17:05:44.838Z,12.73
2018-07-19T17:08:13.464Z,12.47
2018-07-19T17:10:42.112Z,12.80
2018-07-19T17:13:10.845Z,13.83
2018-07-19T17:15:39.493Z,13.43
2018-07-19T17:18:08.237Z,13.47
2018-07-19T17:20:36.950Z,14.40
2018-07-19T17:23:05.720Z,13.57
2018-07-19T17:25:34.366Z,13.87
2018-07-19T17:28:03.110Z,13.67
2018-07-19T17:30:32.394Z,14.10
2018-07-19T17:33:01.014Z,14.70
2018-07-19T17:35:29.738Z,14.43
2018-07-19T17:37:58.533Z,15.23
2018-07-19T17:40:27.417Z,14.73
2018-07-19T17:42:56.297Z,15.13
2018-07-19T17:45:25.057Z,14.93
2018-07-19T17:47:53.666Z,15.80
2018-07-19T17:50:22.408Z,18.70
2018-07-19T17:52:51.072Z,16.70
2018-07-19T17:55:19.718Z,16.50
2018-07-19T17:57:48.352Z,15.97
2018-07-19T18:00:17.030Z,17.80
2018-07-19T18:02:45.682Z,17.37
2018-07-19T18:05:14.356Z,16.90
2018-07-19T18:07:43.056Z,17.37
2018-07-19T18:10:12.154Z,18.17
2018-07-19T18:12:40.781Z,18.17
2018-07-19T18:15:09.531Z,17.43
2018-07-19T18:17:38.204Z,18.50
2018-07-19T18:20:07.413Z,17.93
2018-07-19T18:22:36.124Z,20.47
2018-07-19T18:25:05.295Z,21.30
2018-07-19T18:27:34.069Z,19.97
2018-07-19T18:30:06.010Z,18.27
2018-07-19T18:32:34.635Z,17.93
2018-07-19T18:35:03.461Z,19.53
2018-07-19T18:37:32.079Z,19.10
2018-07-19T18:40:00.787Z,19.27
2018-07-19T18:42:29.552Z,17.43
2018-07-19T18:44:58.255Z,17.93
2018-07-19T18:47:26.952Z,21.80
2018-07-19T18:49:55.631Z,18.73
2018-07-19T18:52:24.282Z,18.70
2018-07-19T18:54:52.935Z,19.47
2018-07-19T18:57:21.577Z,18.67
2018-07-19T18:59:50.267Z,17.93
2018-07-19T19:02:18.955Z,18.63
2018-07-19T19:04:47.645Z,19.37
2018-07-19T19:07:16.364Z,18.27
2018-07-19T19:09:45.025Z,19.80
2018-07-19T19:12:13.833Z,18.37
2018-07-19T19:14:42.518Z,17.37
2018-07-19T19:17:11.225Z,16.70
2018-07-19T19:19:39.950Z,18.73
2018-07-19T19:22:08.592Z,17.83
2018-07-19T19:24:37.234Z,18.80
2018-07-19T19:27:06.356Z,20.23
2018-07-19T19:29:34.987Z,19.63
2018-07-19T19:32:03.757Z,20.33
2018-07-19T19:34:32.386Z,19.53
2018-07-19T19:37:01.077Z,19.63
2018-07-19T19:39:29.798Z,19.73
2018-07-19T19:41:58.538Z,21.80
2018-07-19T19:44:27.198Z,20.13
2018-07-19T19:46:55.848Z,19.53
2018-07-19T19:49:24.554Z,19.80
2018-07-19T19:51:53.237Z,22.03
2018-07-19T19:54:21.924Z,19.30
2018-07-19T19:56:50.602Z,19.70
2018-07-19T19:59:19.253Z,20.37
2018-07-19T20:01:47.913Z,20.70
2018-07-19T20:04:16.602Z,19.97
2018-07-19T20:06:45.267Z,19.03
2018-07-19T20:09:13.885Z,18.77
2018-07-19T20:11:42.595Z,18.77
2018-07-19T20:14:11.221Z,19.87
2018-07-19T20:16:39.963Z,19.03
2018-07-19T20:19:08.604Z,18.43
2018-07-19T20:21:37.266Z,18.67
2018-07-19T20:24:05.926Z,19.03
2018-07-19T20:26:34.672Z,19.83
2018-07-19T20:29:03.386Z,18.40
2018-07-19T20:31:32.030Z,19.30
2018-07-19T20:34:00.660Z,18.97
2018-07-19T20:36:29.339Z,19.77
2018-07-19T20:38:58.335Z,19.47
2018-07-19T20:41:26.993Z,20.03
2018-07-19T20:43:55.621Z,19.60
2018-07-19T20:46:24.329Z,20.23
2018-07-19T20:48:53.065Z,19.47
2018-07-19T20:51:21.706Z,19.30
2018-07-19T20:53:50.434Z,19.47
2018-07-19T20:56:19.339Z,19.60
2018-07-19T20:58:48.036Z,19.20
2018-07-19T21:01:16.763Z,19.53
2018-07-19T21:03:45.386Z,20.07
2018-07-19T21:06:14.036Z,19.40
2018-07-19T21:08:42.646Z,19.23
2018-07-19T21:11:11.266Z,19.90
2018-07-19T21:13:39.894Z,19.37
2018-07-19T21:16:08.745Z,18.73
2018-07-19T21:18:37.378Z,18.80
2018-07-19T21:21:06.095Z,17.67
2018-07-19T21:23:35.076Z,18.93
2018-07-19T21:26:03.825Z,18.53
2018-07-19T21:28:32.418Z,18.70
2018-07-19T21:31:01.056Z,19.13
2018-07-19T21:33:29.699Z,17.83
2018-07-19T21:35:58.394Z,18.40
2018-07-19T21:38:27.058Z,17.17
2018-07-19T21:40:55.709Z,17.23
2018-07-19T21:43:24.327Z,17.73
2018-07-19T21:45:52.970Z,16.70
2018-07-19T21:48:21.619Z,17.53
2018-07-19T21:50:50.250Z,16.13
2018-07-19T21:53:18.915Z,15.97
2018-07-19T21:55:47.550Z,16.20
2018-07-19T21:58:16.226Z,15.17
2018-07-19T22:00:50.013Z,16.33
2018-07-19T22:03:18.734Z,15.47
2018-07-19T22:05:47.366Z,14.33
2018-07-19T22:08:16.039Z,14.50
2018-07-19T22:10:44.670Z,14.83
2018-07-19T22:13:13.312Z,14.43
2018-07-19T22:15:42.017Z,13.87
2018-07-19T22:18:10.641Z,14.67
2018-07-19T22:20:39.340Z,14.33
2018-07-19T22:23:08.032Z,13.23
2018-07-19T22:25:36.867Z,13.33
2018-07-19T22:28:05.748Z,13.13
2018-07-19T22:30:34.540Z,13.27
2018-07-19T22:33:03.302Z,12.47
2018-07-19T22:35:32.852Z,12.80
2018-07-19T22:38:01.507Z,13.57
2018-07-19T22:40:30.204Z,12.43
2018-07-19T22:42:58.828Z,13.70
2018-07-19T22:45:27.529Z,12.53
2018-07-19T22:47:56.207Z,13.37
2018-07-19T22:50:24.815Z,13.37
2018-07-19T22:52:53.606Z,13.10
2018-07-19T22:55:22.190Z,13.43
2018-07-19T22:57:50.833Z,13.90
2018-07-19T23:00:19.538Z,13.37
2018-07-19T23:02:48.175Z,13.03
2018-07-19T23:05:16.855Z,13.50
2018-07-19T23:07:45.506Z,14.23
2018-07-19T23:10:14.225Z,14.87
2018-07-19T23:12:42.875Z,14.33
2018-07-19T23:15:11.503Z,14.43
2018-07-19T23:17:40.107Z,14.83
2018-07-19T23:20:08.839Z,14.43
2018-07-19T23:22:37.482Z,14.50
2018-07-19T23:25:06.143Z,14.80
2018-07-19T23:27:34.835Z,14.60
2018-07-19T23:30:05.271Z,14.10
2018-07-19T23:32:33.994Z,14.53
2018-07-19T23:35:02.717Z,14.50
2018-07-19T23:37:34.619Z,15.70
2018-07-19T23:40:09.405Z,15.93
2018-07-19T23:42:42.897Z,16.40
2018-07-19T23:45:16.844Z,16.03
2018-07-19T23:47:45.936Z,16.07
2018-07-19T23:50:14.602Z,15.47
2018-07-19T23:52:43.257Z,15.10
2018-07-19T23:55:11.874Z,16.33
2018-07-19T23:57:40.488Z,16.40
